createdAt,value
2018-04-13T00:00:40.536Z,96006.87
2018-04-13T00:03:11.566Z,96011.17
2018-04-13T00:05:42.587Z,96020.31
2018-04-13T00:08:13.601Z,96027.55
2018-04-13T00:10:44.620Z,96030.34
2018-04-13T00:13:15.629Z,96027.55
2018-04-13T00:15:46.672Z,96021.94
2018-04-13T00:18:17.640Z,96019.04
2018-04-13T00:20:48.693Z,96021.00
2018-04-13T00:23:19.712Z,96027.38
2018-04-13T00:25:50.702Z,96021.69
2018-04-13T00:28:21.823Z,96025.38
2018-04-13T00:30:52.829Z,96020.63
2018-04-13T00:33:23.823Z,96014.30
2018-04-13T00:35:54.775Z,96021.53
2018-04-13T00:38:25.776Z,96016.15
2018-04-13T00:40:56.776Z,96016.77
2018-04-13T00:43:27.779Z,96025.20
2018-04-13T00:45:58.796Z,96033.14
2018-04-13T00:48:29.844Z,96028.09
2018-04-13T00:51:00.844Z,96028.00
2018-04-13T00:53:31.802Z,96023.16
2018-04-13T00:56:02.850Z,96028.75
2018-04-13T00:58:33.867Z,96023.78
2018-04-13T01:01:04.864Z,96025.11
2018-04-13T01:03:35.811Z,96021.98
2018-04-13T01:06:06.773Z,96025.86
2018-04-13T01:08:37.816Z,96024.09
2018-04-13T01:11:08.800Z,96025.77
2018-04-13T01:13:39.800Z,96024.78
2018-04-13T01:16:10.807Z,96027.52
2018-04-13T01:18:41.808Z,96029.11
2018-04-13T01:21:12.812Z,96029.03
2018-04-13T01:23:43.821Z,96032.77
2018-04-13T01:26:14.860Z,96021.95
2018-04-13T01:28:45.898Z,96024.51
2018-04-13T01:31:16.870Z,96023.81
2018-04-13T01:33:47.851Z,96017.64
2018-04-13T01:36:18.861Z,96021.94
2018-04-13T01:38:49.890Z,96018.05
2018-04-13T01:41:20.878Z,96024.59
2018-04-13T01:43:51.852Z,96029.34
2018-04-13T01:46:22.864Z,96038.72
2018-04-13T01:48:53.884Z,96034.02
2018-04-13T01:51:24.863Z,96027.72
2018-04-13T01:53:55.830Z,96022.96
2018-04-13T01:56:26.855Z,96029.41
2018-04-13T01:58:57.849Z,96023.88
2018-04-13T02:01:28.838Z,96034.41
2018-04-13T02:03:59.828Z,96033.56
2018-04-13T02:06:30.837Z,96044.32
2018-04-13T02:09:01.871Z,96047.43
2018-04-13T02:11:32.881Z,96042.91
2018-04-13T02:14:03.889Z,96035.41
2018-04-13T02:16:34.901Z,96040.17
2018-04-13T02:19:05.961Z,96044.08
2018-04-13T02:21:36.983Z,96044.23
2018-04-13T02:24:08.005Z,96048.60
2018-04-13T02:26:38.979Z,96048.60
2018-04-13T02:29:09.989Z,96052.05
2018-04-13T02:31:40.969Z,96054.70
2018-04-13T02:34:11.989Z,96045.34
2018-04-13T02:36:43.020Z,96047.84
2018-04-13T02:39:14.033Z,96054.47
2018-04-13T02:41:45.054Z,96058.59
2018-04-13T02:44:16.083Z,96056.72
2018-04-13T02:46:47.099Z,96064.20
2018-04-13T02:49:18.112Z,96065.13
2018-04-13T02:51:49.119Z,96061.64
2018-04-13T02:54:20.122Z,96060.00
2018-04-13T02:56:51.069Z,96056.49
2018-04-13T02:59:22.099Z,96058.14
2018-04-13T03:01:53.114Z,96060.55
2018-04-13T03:04:24.118Z,96061.02
2018-04-13T03:06:55.112Z,96063.36
2018-04-13T03:09:26.096Z,96064.30
2018-04-13T03:11:57.096Z,96068.19
2018-04-13T03:14:28.137Z,96074.03
2018-04-13T03:16:59.132Z,96079.27
2018-04-13T03:19:30.142Z,96079.20
2018-04-13T03:22:08.742Z,96083.48
2018-04-13T03:24:39.697Z,96088.63
2018-04-13T03:27:10.724Z,96084.17
2018-04-13T03:29:41.729Z,96094.00
2018-04-13T03:32:12.735Z,96095.88
2018-04-13T03:34:43.755Z,96098.70
2018-04-13T03:37:14.775Z,96104.70
2018-04-13T03:39:45.895Z,96114.29
2018-04-13T03:42:16.941Z,96118.27
2018-04-13T03:44:47.971Z,96121.05
2018-04-13T03:47:18.985Z,96123.31
2018-04-13T03:49:49.981Z,96130.39
2018-04-13T03:52:21.002Z,96128.37
2018-04-13T03:54:51.971Z,96126.59
2018-04-13T03:57:23.127Z,96131.51
2018-04-13T03:59:54.143Z,96132.80
2018-04-13T04:02:25.156Z,96133.25
2018-04-13T04:04:56.110Z,96135.87
2018-04-13T04:07:27.075Z,96141.22
2018-04-13T04:09:58.088Z,96142.48
2018-04-13T04:12:29.138Z,96156.97
2018-04-13T04:15:00.146Z,96160.65
2018-04-13T04:17:31.119Z,96164.22
2018-04-13T04:20:14.442Z,96166.14
2018-04-13T04:22:57.623Z,96161.06
2018-04-13T04:25:40.981Z,96158.35
2018-04-13T04:28:11.985Z,96159.56
2018-04-13T04:30:43.036Z,96165.34
2018-04-13T04:33:14.007Z,96161.23
2018-04-13T04:35:45.035Z,96162.27
2018-04-13T04:38:16.070Z,96168.70
2018-04-13T04:40:47.120Z,96173.83
2018-04-13T04:43:18.128Z,96178.01
2018-04-13T04:45:49.128Z,96179.23
2018-04-13T04:48:20.076Z,96183.27
2018-04-13T04:50:51.049Z,96197.34
2018-04-13T04:53:22.018Z,96188.38
2018-04-13T04:55:53.025Z,96189.41
2018-04-13T04:58:24.112Z,96199.66
2018-04-13T05:00:55.105Z,96210.54
2018-04-13T05:03:26.180Z,96221.52
2018-04-13T05:05:57.200Z,96203.72
2018-04-13T05:08:28.208Z,96201.72
2018-04-13T05:10:59.162Z,96208.11
2018-04-13T05:13:30.167Z,96208.98
2018-04-13T05:16:01.207Z,96212.16
2018-04-13T05:18:32.199Z,96223.09
2018-04-13T05:21:03.186Z,96224.45
2018-04-13T05:23:34.202Z,96220.58
2018-04-13T05:26:05.204Z,96231.05
2018-04-13T05:28:36.172Z,96237.38
2018-04-13T05:31:07.164Z,96233.34
2018-04-13T05:33:38.196Z,96233.58
2018-04-13T05:36:09.228Z,96224.13
2018-04-13T05:38:40.239Z,96225.17
2018-04-13T05:41:11.220Z,96230.73
2018-04-13T05:43:42.246Z,96232.80
2018-04-13T05:46:13.272Z,96228.44
2018-04-13T05:48:44.243Z,96225.89
2018-04-13T05:51:15.268Z,96233.83
2018-04-13T05:53:46.312Z,96234.17
2018-04-13T05:56:17.318Z,96236.62
2018-04-13T05:58:48.281Z,96248.25
2018-04-13T06:01:19.298Z,96256.22
2018-04-13T06:03:50.312Z,96262.34
2018-04-13T06:06:21.382Z,96262.28
2018-04-13T06:08:52.347Z,96257.61
2018-04-13T06:11:23.429Z,96261.77
2018-04-13T06:13:54.407Z,96266.50
2018-04-13T06:16:25.440Z,96263.84
2018-04-13T06:18:56.422Z,96263.36
2018-04-13T06:21:27.446Z,96266.27
2018-04-13T06:23:58.456Z,96269.22
2018-04-13T06:26:29.482Z,96268.38
2018-04-13T06:29:00.511Z,96281.25
2018-04-13T06:31:31.518Z,96278.89
2018-04-13T06:34:02.568Z,96283.42
2018-04-13T06:36:33.611Z,96290.74
2018-04-13T06:39:04.639Z,96292.06
2018-04-13T06:41:35.760Z,96289.27
2018-04-13T06:44:06.781Z,96298.95
2018-04-13T06:46:37.796Z,96308.02
2018-04-13T06:49:08.807Z,96303.27
2018-04-13T06:51:39.819Z,96316.41
2018-04-13T06:54:10.819Z,96318.70
2018-04-13T06:56:41.855Z,96324.89
2018-04-13T06:59:12.833Z,96335.00
2018-04-13T07:01:43.908Z,96329.01
2018-04-13T07:04:14.957Z,96330.67
2018-04-13T07:06:45.996Z,96327.23
2018-04-13T07:09:17.016Z,96340.98
2018-04-13T07:11:48.035Z,96345.40
2018-04-13T07:14:19.023Z,96350.11
2018-04-13T07:16:50.042Z,96351.76
2018-04-13T07:19:21.106Z,96353.73
2018-04-13T07:21:52.060Z,96355.09
2018-04-13T07:24:23.104Z,96356.38
2018-04-13T07:26:54.085Z,96347.22
2018-04-13T07:29:25.121Z,96348.95
2018-04-13T07:31:56.084Z,96350.16
2018-04-13T07:34:27.090Z,96356.82
2018-04-13T07:36:58.100Z,96359.25
2018-04-13T07:39:29.104Z,96358.97
2018-04-13T07:42:00.062Z,96362.16
2018-04-13T07:44:31.081Z,96362.42
2018-04-13T07:47:02.049Z,96357.14
2018-04-13T07:49:33.104Z,96358.19
2018-04-13T07:52:04.094Z,96359.70
2018-04-13T07:54:35.111Z,96347.10
2018-04-13T07:57:06.121Z,96339.28
2018-04-13T07:59:37.156Z,96351.81
2018-04-13T08:02:08.381Z,96348.59
2018-04-13T08:04:39.385Z,96350.28
2018-04-13T08:07:10.355Z,96362.67
2018-04-13T08:09:41.496Z,96344.77
2018-04-13T08:12:12.379Z,96348.90
2018-04-13T08:14:43.390Z,96349.73
2018-04-13T08:17:14.383Z,96346.46
2018-04-13T08:19:45.566Z,96351.03
2018-04-13T08:22:16.628Z,96357.78
2018-04-13T08:24:47.670Z,96358.74
2018-04-13T08:27:18.642Z,96362.27
2018-04-13T08:29:49.753Z,96362.60
2018-04-13T08:32:20.705Z,96372.15
2018-04-13T08:34:51.714Z,96369.26
2018-04-13T08:37:22.775Z,96375.30
2018-04-13T08:39:53.840Z,96371.13
2018-04-13T08:42:24.834Z,96376.69
2018-04-13T08:44:55.889Z,96374.64
2018-04-13T08:47:26.868Z,96383.69
2018-04-13T08:49:57.892Z,96398.19
2018-04-13T08:52:28.891Z,96403.73
2018-04-13T08:54:59.914Z,96404.67
2018-04-13T08:57:30.926Z,96407.44
2018-04-13T09:00:01.934Z,96411.16
2018-04-13T09:02:32.973Z,96405.08
2018-04-13T09:05:03.973Z,96405.11
2018-04-13T09:07:35.073Z,96406.72
2018-04-13T09:10:06.102Z,96405.64
2018-04-13T09:12:37.140Z,96407.73
2018-04-13T09:15:08.120Z,96396.75
2018-04-13T09:17:39.119Z,96408.00
2018-04-13T09:20:10.124Z,96412.71
2018-04-13T09:22:41.104Z,96415.66
2018-04-13T09:25:12.138Z,96420.41
2018-04-13T09:27:43.148Z,96425.92
2018-04-13T09:30:14.154Z,96438.97
2018-04-13T09:32:45.157Z,96431.70
2018-04-13T09:35:16.191Z,96426.33
2018-04-13T09:37:47.188Z,96434.48
2018-04-13T09:40:18.195Z,96454.14
2018-04-13T09:42:49.177Z,96458.48
2018-04-13T09:45:20.229Z,96465.80
2018-04-13T09:47:51.196Z,96472.50
2018-04-13T09:50:22.207Z,96473.97
2018-04-13T09:52:53.146Z,96474.39
2018-04-13T09:55:24.222Z,96482.95
2018-04-13T09:57:55.163Z,96481.88
2018-04-13T10:00:29.273Z,96480.37
2018-04-13T10:03:03.151Z,96472.04
2018-04-13T10:05:34.158Z,96479.41
2018-04-13T10:08:05.216Z,96481.91
2018-04-13T10:10:36.158Z,96491.72
2018-04-13T10:13:07.199Z,96497.16
2018-04-13T10:15:38.233Z,96497.56
2018-04-13T10:18:09.174Z,96502.64
2018-04-13T10:20:40.242Z,96511.09
2018-04-13T10:23:11.264Z,96510.66
2018-04-13T10:25:42.270Z,96509.87
2018-04-13T10:28:13.256Z,96514.77
2018-04-13T10:30:44.352Z,96518.45
2018-04-13T10:33:15.360Z,96524.30
2018-04-13T10:35:46.382Z,96522.02
2018-04-13T10:38:17.346Z,96524.66
2018-04-13T10:40:48.374Z,96533.48
2018-04-13T10:43:19.358Z,96541.50
2018-04-13T10:45:50.364Z,96548.31
2018-04-13T10:48:21.374Z,96542.28
2018-04-13T10:50:52.378Z,96549.41
2018-04-13T10:53:23.411Z,96553.97
2018-04-13T10:55:54.451Z,96553.24
2018-04-13T10:58:25.438Z,96558.00
2018-04-13T11:00:56.479Z,96557.79
2018-04-13T11:03:27.577Z,96570.02
2018-04-13T11:05:58.584Z,96568.81
2018-04-13T11:08:29.559Z,96576.57
2018-04-13T11:11:00.645Z,96570.45
2018-04-13T11:13:31.658Z,96576.27
2018-04-13T11:16:02.675Z,96575.58
2018-04-13T11:18:34.624Z,96574.97
2018-04-13T11:21:05.614Z,96572.35
2018-04-13T11:23:36.624Z,96574.59
2018-04-13T11:26:07.640Z,96573.52
2018-04-13T11:28:38.622Z,96568.09
2018-04-13T11:31:09.699Z,96569.43
2018-04-13T11:33:40.655Z,96573.03
2018-04-13T11:36:11.735Z,96576.01
2018-04-13T11:38:42.726Z,96584.81
2018-04-13T11:41:13.731Z,96585.87
2018-04-13T11:43:44.692Z,96597.17
2018-04-13T11:46:15.779Z,96596.00
2018-04-13T11:48:46.822Z,96591.38
2018-04-13T11:51:17.800Z,96602.86
2018-04-13T11:53:48.794Z,96599.94
2018-04-13T11:56:19.771Z,96597.31
2018-04-13T11:58:50.791Z,96615.53
2018-04-13T12:01:21.840Z,96607.75
2018-04-13T12:03:52.874Z,96614.06
2018-04-13T12:06:23.867Z,96634.55
2018-04-13T12:08:54.880Z,96631.36
2018-04-13T12:11:25.883Z,96620.89
2018-04-13T12:13:56.897Z,96620.80
2018-04-13T12:16:27.895Z,96631.24
2018-04-13T12:18:58.901Z,96625.89
2018-04-13T12:21:29.946Z,96635.48
2018-04-13T12:24:00.889Z,96634.67
2018-04-13T12:26:31.921Z,96635.88
2018-04-13T12:29:02.896Z,96646.98
2018-04-13T12:31:33.906Z,96642.75
2018-04-13T12:34:04.973Z,96642.64
2018-04-13T12:36:35.949Z,96646.50
2018-04-13T12:39:06.970Z,96653.48
2018-04-13T12:41:37.927Z,96652.55
2018-04-13T12:44:08.951Z,96660.88
2018-04-13T12:46:39.962Z,96667.95
2018-04-13T12:49:10.954Z,96665.02
2018-04-13T12:51:41.947Z,96664.81
2018-04-13T12:54:13.011Z,96663.47
2018-04-13T12:56:44.039Z,96668.52
2018-04-13T12:59:15.042Z,96675.41
2018-04-13T13:01:46.047Z,96679.50
2018-04-13T13:04:17.156Z,96679.16
2018-04-13T13:06:48.140Z,96668.41
2018-04-13T13:09:26.066Z,96674.00
2018-04-13T13:11:57.036Z,96673.59
2018-04-13T13:14:28.056Z,96675.16
2018-04-13T13:16:59.719Z,96675.95
2018-04-13T13:19:30.725Z,96678.37
2018-04-13T13:22:01.726Z,96683.31
2018-04-13T13:24:32.741Z,96688.22
2018-04-13T13:27:03.712Z,96694.73
2018-04-13T13:29:34.733Z,96696.13
2018-04-13T13:32:05.710Z,96703.58
2018-04-13T13:34:36.710Z,96737.02
2018-04-13T13:37:07.753Z,96799.58
2018-04-13T13:39:38.727Z,96835.36
2018-04-13T13:42:09.772Z,96842.75
2018-04-13T13:44:40.743Z,96885.91
2018-04-13T13:47:11.728Z,96889.59
2018-04-13T13:49:42.742Z,96910.97
2018-04-13T13:52:13.816Z,96916.70
2018-04-13T13:54:44.903Z,96902.66
2018-04-13T13:57:15.911Z,96921.11
2018-04-13T13:59:46.958Z,96940.03
2018-04-13T14:02:17.987Z,96962.84
2018-04-13T14:04:48.967Z,96975.18
2018-04-13T14:07:19.977Z,96983.50
2018-04-13T14:09:50.982Z,96980.66
2018-04-13T14:12:22.032Z,96994.48
2018-04-13T14:14:53.059Z,96979.70
2018-04-13T14:17:24.014Z,97009.06
2018-04-13T14:19:55.050Z,97035.67
2018-04-13T14:22:26.044Z,97024.35
2018-04-13T14:24:57.088Z,96997.06
2018-04-13T14:27:28.090Z,96999.81
2018-04-13T14:29:59.147Z,97005.96
2018-04-13T14:32:30.106Z,97019.94
2018-04-13T14:35:01.122Z,97017.47
2018-04-13T14:37:32.111Z,97017.05
2018-04-13T14:40:03.147Z,97013.63
2018-04-13T14:42:34.167Z,97010.18
2018-04-13T14:45:05.174Z,97009.21
2018-04-13T14:47:36.205Z,97004.87
2018-04-13T14:50:07.215Z,97013.89
2018-04-13T14:52:38.288Z,97013.34
2018-04-13T14:55:09.290Z,97025.05
2018-04-13T14:57:40.242Z,97018.73
2018-04-13T15:00:11.268Z,97041.77
2018-04-13T15:02:42.287Z,97042.19
2018-04-13T15:05:13.346Z,97050.79
2018-04-13T15:07:44.370Z,97054.88
2018-04-13T15:10:15.451Z,97064.71
2018-04-13T15:12:46.467Z,97072.22
2018-04-13T15:15:17.498Z,97079.45
2018-04-13T15:17:48.484Z,97087.39
2018-04-13T15:20:19.527Z,97092.86
2018-04-13T15:22:50.516Z,97107.97
2018-04-13T15:25:21.591Z,97109.84
2018-04-13T15:27:52.631Z,97113.14
2018-04-13T15:30:23.575Z,97119.69
2018-04-13T15:32:54.592Z,97124.94
2018-04-13T15:35:25.665Z,97125.80
2018-04-13T15:37:56.626Z,97135.63
2018-04-13T15:40:27.656Z,97126.30
2018-04-13T15:42:58.638Z,97130.94
2018-04-13T15:45:29.623Z,97124.51
2018-04-13T15:48:00.618Z,97111.88
2018-04-13T15:50:31.620Z,97122.92
2018-04-13T15:53:02.662Z,97127.30
2018-04-13T15:55:33.705Z,97131.79
2018-04-13T15:58:04.747Z,97132.31
2018-04-13T16:00:35.782Z,97127.05
2018-04-13T16:03:06.754Z,97130.83
2018-04-13T16:05:37.738Z,97143.03
2018-04-13T16:08:08.808Z,97154.86
2018-04-13T16:10:40.356Z,97152.92
2018-04-13T16:13:11.404Z,97156.35
2018-04-13T16:15:42.405Z,97158.86
2018-04-13T16:18:13.461Z,97154.89
2018-04-13T16:20:44.426Z,97160.44
2018-04-13T16:23:15.496Z,97160.89
2018-04-13T16:25:46.508Z,97179.91
2018-04-13T16:28:17.524Z,97175.13
2018-04-13T16:30:48.545Z,97179.33
2018-04-13T16:33:19.605Z,97192.55
2018-04-13T16:35:50.594Z,97193.70
2018-04-13T16:38:21.636Z,97199.13
2018-04-13T16:40:52.611Z,97189.68
2018-04-13T16:43:23.729Z,97196.86
2018-04-13T16:45:54.754Z,97199.62
2018-04-13T16:48:25.748Z,97190.81
2018-04-13T16:50:56.726Z,97196.48
2018-04-13T16:53:27.782Z,97196.36
2018-04-13T16:56:00.760Z,97201.09
2018-04-13T16:58:34.539Z,97211.23
2018-04-13T17:01:08.065Z,97221.17
2018-04-13T17:03:41.813Z,97232.63
2018-04-13T17:06:14.954Z,97234.03
2018-04-13T17:08:48.233Z,97244.66
2018-04-13T17:11:21.905Z,97251.69
2018-04-13T17:13:55.048Z,97261.68
2018-04-13T17:16:31.190Z,97269.52
2018-04-13T17:19:04.322Z,97276.24
2018-04-13T17:21:36.230Z,97282.69
2018-04-13T17:24:09.212Z,97290.38
2018-04-13T17:26:42.159Z,97297.16
2018-04-13T17:29:15.436Z,97302.89
2018-04-13T17:31:49.135Z,97310.73
2018-04-13T17:34:21.740Z,97310.67
2018-04-13T17:36:54.708Z,97320.09
2018-04-13T17:39:27.536Z,97330.70
2018-04-13T17:42:00.410Z,97332.20
2018-04-13T17:44:33.502Z,97340.94
2018-04-13T17:47:06.401Z,97339.25
2018-04-13T17:49:40.552Z,97340.33
2018-04-13T17:52:14.731Z,97343.25
2018-04-13T17:54:47.991Z,97345.24
2018-04-13T17:57:21.255Z,97355.94
2018-04-13T17:59:55.253Z,97350.66
2018-04-13T18:02:28.138Z,97359.66
2018-04-13T18:04:59.179Z,97367.48
2018-04-13T18:07:32.290Z,97369.86
2018-04-13T18:10:05.577Z,97374.59
2018-04-13T18:12:38.780Z,97382.92
2018-04-13T18:15:11.787Z,97390.19
2018-04-13T18:17:44.957Z,97389.64
2018-04-13T18:20:19.527Z,97402.97
2018-04-13T18:22:53.743Z,97406.67
2018-04-13T18:25:26.835Z,97420.67
2018-04-13T18:28:00.103Z,97424.62
2018-04-13T18:30:33.748Z,97431.36
2018-04-13T18:33:07.871Z,97440.45
2018-04-13T18:35:41.588Z,97439.13
2018-04-13T18:38:15.076Z,97437.28
2018-04-13T18:40:47.848Z,97438.19
2018-04-13T18:43:18.886Z,97434.34
2018-04-13T18:45:49.870Z,97446.35
2018-04-13T18:48:21.270Z,97455.16
2018-04-13T18:50:52.359Z,97456.59
2018-04-13T18:53:23.330Z,97458.78
2018-04-13T18:55:54.633Z,97466.81
2018-04-13T18:58:28.754Z,97471.55
2018-04-13T19:01:02.012Z,97480.64
2018-04-13T19:03:34.963Z,97482.47
2018-04-13T19:06:07.686Z,97479.95
2018-04-13T19:08:40.866Z,97485.11
2018-04-13T19:11:13.284Z,97473.88
2018-04-13T19:13:46.617Z,97474.25
2018-04-13T19:16:19.550Z,97487.45
2018-04-13T19:18:52.646Z,97483.73
2018-04-13T19:21:25.213Z,97481.75
2018-04-13T19:23:58.209Z,97485.30
2018-04-13T19:26:31.162Z,97486.59
2018-04-13T19:29:04.939Z,97494.92
2018-04-13T19:31:37.895Z,97493.30
2018-04-13T19:34:10.678Z,97497.08
2018-04-13T19:36:44.371Z,97499.04
2018-04-13T19:39:16.788Z,97494.41
2018-04-13T19:41:50.926Z,97496.52
2018-04-13T19:44:24.161Z,97499.28
2018-04-13T19:46:57.296Z,97504.84
2018-04-13T19:49:31.527Z,97508.37
2018-04-13T19:52:04.570Z,97515.08
2018-04-13T19:54:35.808Z,97527.97
2018-04-13T19:57:07.016Z,97529.80
2018-04-13T19:59:38.180Z,97526.92
2018-04-13T20:02:09.368Z,97525.72
2018-04-13T20:04:40.542Z,97540.44
2018-04-13T20:07:11.708Z,97550.74
2018-04-13T20:09:42.889Z,97549.42
2018-04-13T20:12:14.085Z,97559.30
2018-04-13T20:14:45.209Z,97559.42
2018-04-13T20:17:16.249Z,97557.22
2018-04-13T20:19:47.427Z,97559.33
2018-04-13T20:22:18.602Z,97558.78
2018-04-13T20:24:49.740Z,97568.80
2018-04-13T20:27:20.888Z,97568.13
2018-04-13T20:29:52.158Z,97569.29
2018-04-13T20:32:23.317Z,97572.81
2018-04-13T20:34:54.396Z,97566.49
2018-04-13T20:37:26.098Z,97566.22
2018-04-13T20:39:57.348Z,97581.12
2018-04-13T20:42:28.577Z,97591.86
2018-04-13T20:45:00.821Z,97586.98
2018-04-13T20:47:31.965Z,97589.11
2018-04-13T20:50:03.209Z,97589.42
2018-04-13T20:52:34.409Z,97594.48
2018-04-13T20:55:05.653Z,97590.39
2018-04-13T20:57:36.822Z,97589.81
2018-04-13T21:00:07.910Z,97597.29
2018-04-13T21:02:39.170Z,97597.23
2018-04-13T21:05:10.327Z,97589.63
2018-04-13T21:07:41.473Z,97585.42
2018-04-13T21:10:12.541Z,97590.25
2018-04-13T21:12:43.772Z,97592.07
2018-04-13T21:15:14.911Z,97590.66
2018-04-13T21:17:46.115Z,97589.16
2018-04-13T21:20:17.262Z,97593.37
2018-04-13T21:22:48.297Z,97588.73
2018-04-13T21:25:19.285Z,97592.53
2018-04-13T21:27:50.265Z,97587.99
2018-04-13T21:30:21.259Z,97587.44
2018-04-13T21:32:52.318Z,97593.97
2018-04-13T21:35:23.326Z,97593.06
2018-04-13T21:37:54.311Z,97591.63
2018-04-13T21:40:25.303Z,97587.31
2018-04-13T21:42:56.310Z,97588.91
2018-04-13T21:45:27.286Z,97584.50
2018-04-13T21:47:58.278Z,97591.45
2018-04-13T21:50:29.265Z,97590.09
2018-04-13T21:53:00.303Z,97602.27
2018-04-13T21:55:31.262Z,97603.66
2018-04-13T21:58:02.238Z,97602.38
2018-04-13T22:00:33.219Z,97609.95
2018-04-13T22:03:04.258Z,97614.40
2018-04-13T22:05:35.283Z,97607.09
2018-04-13T22:08:06.279Z,97602.97
2018-04-13T22:10:37.246Z,97602.80
2018-04-13T22:13:20.733Z,97606.59
2018-04-13T22:15:51.692Z,97617.35
2018-04-13T22:18:22.692Z,97612.77
2018-04-13T22:20:53.704Z,97617.70
2018-04-13T22:23:24.739Z,97621.20
2018-04-13T22:25:55.739Z,97619.82
2018-04-13T22:28:26.710Z,97622.91
2018-04-13T22:30:57.726Z,97625.21
2018-04-13T22:33:28.734Z,97627.66
2018-04-13T22:35:59.743Z,97626.30
2018-04-13T22:38:30.740Z,97635.52
2018-04-13T22:41:01.716Z,97641.46
2018-04-13T22:43:32.723Z,97643.86
2018-04-13T22:46:03.760Z,97647.13
2018-04-13T22:48:34.774Z,97651.97
2018-04-13T22:51:05.777Z,97652.84
2018-04-13T22:53:36.779Z,97652.27
2018-04-13T22:56:07.844Z,97649.85
2018-04-13T22:58:38.898Z,97651.39
2018-04-13T23:01:09.876Z,97660.14
2018-04-13T23:03:40.917Z,97661.27
2018-04-13T23:06:11.915Z,97666.14
2018-04-13T23:08:42.928Z,97669.00
2018-04-13T23:11:13.932Z,97677.01
2018-04-13T23:13:44.942Z,97681.82
2018-04-13T23:16:15.917Z,97687.86
2018-04-13T23:18:46.947Z,97691.23
2018-04-13T23:21:17.996Z,97699.93
2018-04-13T23:23:48.998Z,97698.38
2018-04-13T23:26:20.012Z,97699.02
2018-04-13T23:28:51.018Z,97703.94
2018-04-13T23:31:22.054Z,97704.38
2018-04-13T23:33:53.024Z,97697.55
2018-04-13T23:36:23.994Z,97703.81
2018-04-13T23:38:54.999Z,97714.56
2018-04-13T23:41:26.033Z,97718.39
2018-04-13T23:43:57.034Z,97726.00
2018-04-13T23:46:28.014Z,97724.00
2018-04-13T23:48:59.028Z,97722.37
2018-04-13T23:51:30.082Z,97723.00
2018-04-13T23:54:01.110Z,97719.66
2018-04-13T23:56:32.153Z,97723.14
2018-04-13T23:59:03.200Z,97724.28
